sensor_id;sensor_type;location;lat;lon;timestamp;P1;durP1;ratioP1;P2;durP2;ratioP2
60054;SDS011;45930;53.514;55.904;2024-01-25T00:00:55;31.23;;;17.40;;
60054;SDS011;45930;53.514;55.904;2024-01-25T00:01:56;33.00;;;17.67;;
60054;SDS011;45930;53.514;55.904;2024-01-25T00:02:57;30.77;;;16.53;;
60054;SDS011;45930;53.514;55.904;2024-01-25T00:03:58;33.87;;;15.83;;
60054;SDS011;45930;53.514;55.904;2024-01-25T00:04:58;33.60;;;17.33;;
60054;SDS011;45930;53.514;55.904;2024-01-25T00:05:59;34.03;;;16.47;;
60054;SDS011;45930;53.514;55.904;2024-01-25T00:07:00;34.33;;;16.98;;
60054;SDS011;45930;53.514;55.904;2024-01-25T00:08:01;35.23;;;16.80;;
60054;SDS011;45930;53.514;55.904;2024-01-25T00:09:01;33.70;;;15.83;;
60054;SDS011;45930;53.514;55.904;2024-01-25T00:10:04;30.00;;;15.98;;
60054;SDS011;45930;53.514;55.904;2024-01-25T00:11:07;34.83;;;17.00;;
60054;SDS011;45930;53.514;55.904;2024-01-25T00:12:09;31.27;;;16.55;;
60054;SDS011;45930;53.514;55.904;2024-01-25T00:13:10;37.70;;;17.00;;
60054;SDS011;45930;53.514;55.904;2024-01-25T00:14:11;31.97;;;15.80;;
60054;SDS011;45930;53.514;55.904;2024-01-25T00:15:12;33.73;;;17.43;;
60054;SDS011;45930;53.514;55.904;2024-01-25T00:16:13;33.50;;;16.50;;
60054;SDS011;45930;53.514;55.904;2024-01-25T00:17:13;29.27;;;14.67;;
60054;SDS011;45930;53.514;55.904;2024-01-25T00:18:14;28.70;;;16.87;;
60054;SDS011;45930;53.514;55.904;2024-01-25T00:19:15;32.07;;;17.67;;
60054;SDS011;45930;53.514;55.904;2024-01-25T00:20:15;26.33;;;14.93;;
60054;SDS011;45930;53.514;55.904;2024-01-25T00:21:16;29.17;;;15.50;;
60054;SDS011;45930;53.514;55.904;2024-01-25T00:22:17;28.77;;;15.33;;
60054;SDS011;45930;53.514;55.904;2024-01-25T00:23:18;28.23;;;15.67;;
60054;SDS011;45930;53.514;55.904;2024-01-25T00:24:18;34.03;;;16.27;;
60054;SDS011;45930;53.514;55.904;2024-01-25T00:25:19;31.37;;;15.57;;
60054;SDS011;45930;53.514;55.904;2024-01-25T00:26:20;29.00;;;16.50;;
60054;SDS011;45930;53.514;55.904;2024-01-25T00:27:20;25.73;;;14.73;;
60054;SDS011;45930;53.514;55.904;2024-01-25T00:28:21;28.63;;;14.37;;
60054;SDS011;45930;53.514;55.904;2024-01-25T00:29:22;29.57;;;13.97;;
60054;SDS011;45930;53.514;55.904;2024-01-25T00:30:22;25.30;;;13.07;;
60054;SDS011;45930;53.514;55.904;2024-01-25T00:31:23;27.03;;;14.40;;
60054;SDS011;45930;53.514;55.904;2024-01-25T00:32:24;24.17;;;13.70;;
60054;SDS011;45930;53.514;55.904;2024-01-25T00:33:26;29.63;;;13.20;;
60054;SDS011;45930;53.514;55.904;2024-01-25T00:34:27;25.17;;;13.60;;
60054;SDS011;45930;53.514;55.904;2024-01-25T00:35:28;29.07;;;14.93;;
60054;SDS011;45930;53.514;55.904;2024-01-25T00:36:28;26.77;;;14.27;;
60054;SDS011;45930;53.514;55.904;2024-01-25T00:37:30;26.98;;;13.77;;
60054;SDS011;45930;53.514;55.904;2024-01-25T00:38:31;23.90;;;13.43;;
60054;SDS011;45930;53.514;55.904;2024-01-25T00:39:32;24.55;;;13.52;;
60054;SDS011;45930;53.514;55.904;2024-01-25T00:40:33;23.17;;;13.13;;
60054;SDS011;45930;53.514;55.904;2024-01-25T00:41:34;23.93;;;13.50;;
60054;SDS011;45930;53.514;55.904;2024-01-25T00:42:42;25.70;;;12.80;;
60054;SDS011;45930;53.514;55.904;2024-01-25T00:43:45;20.95;;;12.75;;
60054;SDS011;45930;53.514;55.904;2024-01-25T00:44:46;27.05;;;12.40;;
60054;SDS011;45930;53.514;55.904;2024-01-25T00:45:47;25.23;;;12.20;;
60054;SDS011;45930;53.514;55.904;2024-01-25T00:46:48;26.43;;;12.73;;
60054;SDS011;45930;53.514;55.904;2024-01-25T00:47:49;24.92;;;13.10;;
60054;SDS011;45930;53.514;55.904;2024-01-25T00:48:51;24.48;;;12.00;;
60054;SDS011;45930;53.514;55.904;2024-01-25T00:49:52;24.33;;;12.27;;
60054;SDS011;45930;53.514;55.904;2024-01-25T00:50:53;20.67;;;12.20;;
60054;SDS011;45930;53.514;55.904;2024-01-25T00:51:55;22.27;;;12.35;;
60054;SDS011;45930;53.514;55.904;2024-01-25T00:52:59;25.77;;;12.63;;
60054;SDS011;45930;53.514;55.904;2024-01-25T00:54:00;24.43;;;12.97;;
60054;SDS011;45930;53.514;55.904;2024-01-25T00:55:01;26.63;;;12.20;;
60054;SDS011;45930;53.514;55.904;2024-01-25T00:56:03;28.35;;;14.23;;
60054;SDS011;45930;53.514;55.904;2024-01-25T00:57:04;21.42;;;12.45;;
60054;SDS011;45930;53.514;55.904;2024-01-25T00:58:06;22.95;;;13.23;;
60054;SDS011;45930;53.514;55.904;2024-01-25T00:59:07;27.98;;;13.80;;
60054;SDS011;45930;53.514;55.904;2024-01-25T01:00:08;26.77;;;13.00;;
60054;SDS011;45930;53.514;55.904;2024-01-25T01:01:09;22.75;;;13.65;;
60054;SDS011;45930;53.514;55.904;2024-01-25T01:02:11;26.73;;;14.43;;
60054;SDS011;45930;53.514;55.904;2024-01-25T01:03:13;23.35;;;11.38;;
60054;SDS011;45930;53.514;55.904;2024-01-25T01:04:15;20.95;;;11.05;;
60054;SDS011;45930;53.514;55.904;2024-01-25T01:05:16;22.80;;;11.82;;
60054;SDS011;45930;53.514;55.904;2024-01-25T01:06:17;22.37;;;12.67;;
60054;SDS011;45930;53.514;55.904;2024-01-25T01:07:18;21.95;;;11.38;;
60054;SDS011;45930;53.514;55.904;2024-01-25T01:08:19;20.73;;;11.43;;
60054;SDS011;45930;53.514;55.904;2024-01-25T01:09:20;20.95;;;12.05;;
60054;SDS011;45930;53.514;55.904;2024-01-25T01:10:20;22.47;;;11.57;;
60054;SDS011;45930;53.514;55.904;2024-01-25T01:11:21;20.13;;;12.17;;
60054;SDS011;45930;53.514;55.904;2024-01-25T01:12:22;24.97;;;11.80;;
60054;SDS011;45930;53.514;55.904;2024-01-25T01:13:25;16.40;;;9.50;;
60054;SDS011;45930;53.514;55.904;2024-01-25T01:14:27;19.15;;;11.00;;
60054;SDS011;45930;53.514;55.904;2024-01-25T01:15:28;18.73;;;11.47;;
60054;SDS011;45930;53.514;55.904;2024-01-25T01:16:29;20.63;;;11.67;;
60054;SDS011;45930;53.514;55.904;2024-01-25T01:17:33;15.40;;;9.52;;
60054;SDS011;45930;53.514;55.904;2024-01-25T01:18:33;17.60;;;10.77;;
60054;SDS011;45930;53.514;55.904;2024-01-25T01:19:34;18.97;;;9.97;;
60054;SDS011;45930;53.514;55.904;2024-01-25T01:20:35;19.20;;;10.60;;
60054;SDS011;45930;53.514;55.904;2024-01-25T01:21:35;15.50;;;9.20;;
60054;SDS011;45930;53.514;55.904;2024-01-25T01:22:36;19.53;;;9.27;;
60054;SDS011;45930;53.514;55.904;2024-01-25T01:23:37;17.57;;;9.47;;
60054;SDS011;45930;53.514;55.904;2024-01-25T01:24:38;15.77;;;7.77;;
60054;SDS011;45930;53.514;55.904;2024-01-25T01:25:38;15.73;;;8.47;;
60054;SDS011;45930;53.514;55.904;2024-01-25T01:26:39;13.57;;;7.77;;
60054;SDS011;45930;53.514;55.904;2024-01-25T01:27:42;13.93;;;8.20;;
60054;SDS011;45930;53.514;55.904;2024-01-25T01:28:42;14.27;;;8.47;;
60054;SDS011;45930;53.514;55.904;2024-01-25T01:29:43;12.27;;;7.53;;
60054;SDS011;45930;53.514;55.904;2024-01-25T01:30:44;15.07;;;8.57;;
60054;SDS011;45930;53.514;55.904;2024-01-25T01:31:45;13.90;;;7.18;;
60054;SDS011;45930;53.514;55.904;2024-01-25T01:32:46;13.27;;;7.70;;
60054;SDS011;45930;53.514;55.904;2024-01-25T01:33:47;15.07;;;7.93;;
60054;SDS011;45930;53.514;55.904;2024-01-25T01:34:48;12.80;;;8.10;;
60054;SDS011;45930;53.514;55.904;2024-01-25T01:35:48;11.77;;;7.00;;
60054;SDS011;45930;53.514;55.904;2024-01-25T01:36:49;16.10;;;7.80;;
60054;SDS011;45930;53.514;55.904;2024-01-25T01:37:50;11.87;;;7.20;;
60054;SDS011;45930;53.514;55.904;2024-01-25T01:38:50;16.20;;;7.60;;
60054;SDS011;45930;53.514;55.904;2024-01-25T01:39:51;16.97;;;7.53;;
60054;SDS011;45930;53.514;55.904;2024-01-25T01:40:53;13.55;;;7.82;;
60054;SDS011;45930;53.514;55.904;2024-01-25T01:41:53;14.33;;;7.87;;
60054;SDS011;45930;53.514;55.904;2024-01-25T01:43:00;15.07;;;7.97;;
60054;SDS011;45930;53.514;55.904;2024-01-25T01:44:02;14.88;;;7.90;;
60054;SDS011;45930;53.514;55.904;2024-01-25T01:45:02;13.97;;;7.70;;
60054;SDS011;45930;53.514;55.904;2024-01-25T01:46:06;11.75;;;8.43;;
60054;SDS011;45930;53.514;55.904;2024-01-25T01:47:11;14.18;;;7.85;;
60054;SDS011;45930;53.514;55.904;2024-01-25T01:48:12;14.40;;;7.70;;
60054;SDS011;45930;53.514;55.904;2024-01-25T01:49:14;12.68;;;7.75;;
60054;SDS011;45930;53.514;55.904;2024-01-25T01:50:15;13.10;;;7.97;;
60054;SDS011;45930;53.514;55.904;2024-01-25T01:51:18;15.10;;;8.65;;
60054;SDS011;45930;53.514;55.904;2024-01-25T01:52:18;13.97;;;8.93;;
60054;SDS011;45930;53.514;55.904;2024-01-25T01:53:19;13.73;;;8.10;;
60054;SDS011;45930;53.514;55.904;2024-01-25T01:54:20;13.57;;;7.87;;
60054;SDS011;45930;53.514;55.904;2024-01-25T01:55:21;10.57;;;6.67;;
60054;SDS011;45930;53.514;55.904;2024-01-25T01:56:23;14.98;;;7.88;;
60054;SDS011;45930;53.514;55.904;2024-01-25T01:57:25;12.13;;;7.38;;
60054;SDS011;45930;53.514;55.904;2024-01-25T01:58:28;12.48;;;7.43;;
60054;SDS011;45930;53.514;55.904;2024-01-25T01:59:30;15.40;;;7.28;;
60054;SDS011;45930;53.514;55.904;2024-01-25T02:00:31;15.77;;;7.78;;
60054;SDS011;45930;53.514;55.904;2024-01-25T02:01:34;12.73;;;8.13;;
60054;SDS011;45930;53.514;55.904;2024-01-25T02:02:35;14.80;;;9.30;;
60054;SDS011;45930;53.514;55.904;2024-01-25T02:03:36;17.70;;;9.23;;
60054;SDS011;45930;53.514;55.904;2024-01-25T02:04:36;18.57;;;10.30;;
60054;SDS011;45930;53.514;55.904;2024-01-25T02:05:38;22.17;;;12.40;;
60054;SDS011;45930;53.514;55.904;2024-01-25T02:06:38;24.27;;;13.50;;
60054;SDS011;45930;53.514;55.904;2024-01-25T02:07:39;20.03;;;12.50;;
60054;SDS011;45930;53.514;55.904;2024-01-25T02:08:40;24.38;;;15.00;;
60054;SDS011;45930;53.514;55.904;2024-01-25T02:09:41;27.37;;;15.50;;
60054;SDS011;45930;53.514;55.904;2024-01-25T02:10:42;29.83;;;16.87;;
60054;SDS011;45930;53.514;55.904;2024-01-25T02:11:43;31.15;;;16.90;;
60054;SDS011;45930;53.514;55.904;2024-01-25T02:12:44;35.80;;;18.37;;
60054;SDS011;45930;53.514;55.904;2024-01-25T02:13:44;36.37;;;19.03;;
60054;SDS011;45930;53.514;55.904;2024-01-25T02:14:45;31.40;;;18.83;;
60054;SDS011;45930;53.514;55.904;2024-01-25T02:15:46;34.77;;;17.90;;
60054;SDS011;45930;53.514;55.904;2024-01-25T02:16:47;30.17;;;17.77;;
60054;SDS011;45930;53.514;55.904;2024-01-25T02:17:48;32.28;;;18.70;;
60054;SDS011;45930;53.514;55.904;2024-01-25T02:18:49;29.75;;;18.00;;
60054;SDS011;45930;53.514;55.904;2024-01-25T02:19:50;31.17;;;18.10;;
60054;SDS011;45930;53.514;55.904;2024-01-25T02:20:51;28.50;;;17.17;;
60054;SDS011;45930;53.514;55.904;2024-01-25T02:21:51;23.67;;;16.47;;
60054;SDS011;45930;53.514;55.904;2024-01-25T02:22:54;27.23;;;16.42;;
60054;SDS011;45930;53.514;55.904;2024-01-25T02:23:55;25.80;;;15.07;;
60054;SDS011;45930;53.514;55.904;2024-01-25T02:24:55;31.90;;;16.97;;
60054;SDS011;45930;53.514;55.904;2024-01-25T02:25:56;28.10;;;16.20;;
60054;SDS011;45930;53.514;55.904;2024-01-25T02:26:57;27.30;;;15.83;;
60054;SDS011;45930;53.514;55.904;2024-01-25T02:27:57;23.43;;;13.77;;
60054;SDS011;45930;53.514;55.904;2024-01-25T02:28:58;21.57;;;12.93;;
60054;SDS011;45930;53.514;55.904;2024-01-25T02:29:59;20.10;;;11.37;;
60054;SDS011;45930;53.514;55.904;2024-01-25T02:31:00;25.20;;;12.43;;
60054;SDS011;45930;53.514;55.904;2024-01-25T02:32:02;21.08;;;12.50;;
60054;SDS011;45930;53.514;55.904;2024-01-25T02:33:03;19.75;;;11.00;;
60054;SDS011;45930;53.514;55.904;2024-01-25T02:34:04;17.50;;;10.83;;
60054;SDS011;45930;53.514;55.904;2024-01-25T02:35:05;13.80;;;9.63;;
60054;SDS011;45930;53.514;55.904;2024-01-25T02:36:06;17.23;;;9.13;;
60054;SDS011;45930;53.514;55.904;2024-01-25T02:37:07;14.07;;;8.60;;
60054;SDS011;45930;53.514;55.904;2024-01-25T02:38:08;13.57;;;8.90;;
60054;SDS011;45930;53.514;55.904;2024-01-25T02:39:08;14.03;;;8.17;;
60054;SDS011;45930;53.514;55.904;2024-01-25T02:40:09;12.60;;;7.63;;
60054;SDS011;45930;53.514;55.904;2024-01-25T02:41:10;14.40;;;8.27;;
60054;SDS011;45930;53.514;55.904;2024-01-25T02:42:11;12.20;;;8.23;;
60054;SDS011;45930;53.514;55.904;2024-01-25T02:43:13;14.50;;;8.50;;
60054;SDS011;45930;53.514;55.904;2024-01-25T02:44:15;13.63;;;7.80;;
60054;SDS011;45930;53.514;55.904;2024-01-25T02:45:15;11.93;;;8.27;;
60054;SDS011;45930;53.514;55.904;2024-01-25T02:46:16;14.60;;;8.67;;
60054;SDS011;45930;53.514;55.904;2024-01-25T02:47:17;16.40;;;8.67;;
60054;SDS011;45930;53.514;55.904;2024-01-25T02:48:19;14.05;;;8.40;;
60054;SDS011;45930;53.514;55.904;2024-01-25T02:49:19;12.23;;;7.37;;
60054;SDS011;45930;53.514;55.904;2024-01-25T02:50:20;16.40;;;8.80;;
60054;SDS011;45930;53.514;55.904;2024-01-25T02:51:21;15.70;;;8.27;;
60054;SDS011;45930;53.514;55.904;2024-01-25T02:52:22;14.43;;;8.60;;
60054;SDS011;45930;53.514;55.904;2024-01-25T02:53:22;14.83;;;8.10;;
60054;SDS011;45930;53.514;55.904;2024-01-25T02:54:23;13.50;;;8.50;;
60054;SDS011;45930;53.514;55.904;2024-01-25T02:55:24;12.30;;;7.97;;
60054;SDS011;45930;53.514;55.904;2024-01-25T02:56:24;15.60;;;8.07;;
60054;SDS011;45930;53.514;55.904;2024-01-25T02:57:25;14.67;;;7.67;;
60054;SDS011;45930;53.514;55.904;2024-01-25T02:58:26;13.45;;;7.47;;
60054;SDS011;45930;53.514;55.904;2024-01-25T02:59:27;15.33;;;8.20;;
60054;SDS011;45930;53.514;55.904;2024-01-25T03:00:28;12.40;;;7.73;;
60054;SDS011;45930;53.514;55.904;2024-01-25T03:01:36;15.77;;;7.17;;
60054;SDS011;45930;53.514;55.904;2024-01-25T03:02:38;13.00;;;7.65;;
60054;SDS011;45930;53.514;55.904;2024-01-25T03:03:38;13.07;;;7.60;;
60054;SDS011;45930;53.514;55.904;2024-01-25T03:04:39;14.50;;;8.63;;
60054;SDS011;45930;53.514;55.904;2024-01-25T03:05:40;13.70;;;7.50;;
60054;SDS011;45930;53.514;55.904;2024-01-25T03:06:41;16.07;;;7.87;;
60054;SDS011;45930;53.514;55.904;2024-01-25T03:07:41;12.00;;;7.17;;
60054;SDS011;45930;53.514;55.904;2024-01-25T03:08:42;16.77;;;8.10;;
60054;SDS011;45930;53.514;55.904;2024-01-25T03:09:43;13.87;;;7.83;;
60054;SDS011;45930;53.514;55.904;2024-01-25T03:10:43;11.50;;;7.97;;
60054;SDS011;45930;53.514;55.904;2024-01-25T03:11:44;12.50;;;7.47;;
60054;SDS011;45930;53.514;55.904;2024-01-25T03:12:45;11.97;;;7.83;;
60054;SDS011;45930;53.514;55.904;2024-01-25T03:13:46;12.70;;;8.40;;
60054;SDS011;45930;53.514;55.904;2024-01-25T03:14:47;13.23;;;7.57;;
60054;SDS011;45930;53.514;55.904;2024-01-25T03:15:48;15.10;;;7.63;;
60054;SDS011;45930;53.514;55.904;2024-01-25T03:16:49;14.87;;;7.33;;
60054;SDS011;45930;53.514;55.904;2024-01-25T03:17:50;14.03;;;7.37;;
60054;SDS011;45930;53.514;55.904;2024-01-25T03:18:52;12.27;;;8.27;;
60054;SDS011;45930;53.514;55.904;2024-01-25T03:19:52;13.82;;;7.78;;
60054;SDS011;45930;53.514;55.904;2024-01-25T03:20:53;13.27;;;7.20;;
60054;SDS011;45930;53.514;55.904;2024-01-25T03:21:54;12.30;;;5.93;;
60054;SDS011;45930;53.514;55.904;2024-01-25T03:22:55;11.10;;;6.97;;
60054;SDS011;45930;53.514;55.904;2024-01-25T03:23:56;12.60;;;6.77;;
60054;SDS011;45930;53.514;55.904;2024-01-25T03:24:56;13.93;;;7.47;;
60054;SDS011;45930;53.514;55.904;2024-01-25T03:25:57;16.30;;;8.03;;
60054;SDS011;45930;53.514;55.904;2024-01-25T03:26:58;14.83;;;7.13;;
60054;SDS011;45930;53.514;55.904;2024-01-25T03:27:59;13.17;;;7.07;;
60054;SDS011;45930;53.514;55.904;2024-01-25T03:29:00;10.60;;;6.43;;
60054;SDS011;45930;53.514;55.904;2024-01-25T03:30:01;9.70;;;7.83;;
60054;SDS011;45930;53.514;55.904;2024-01-25T03:31:02;12.45;;;7.63;;
60054;SDS011;45930;53.514;55.904;2024-01-25T03:32:03;12.60;;;6.57;;
60054;SDS011;45930;53.514;55.904;2024-01-25T03:33:04;11.10;;;7.27;;
60054;SDS011;45930;53.514;55.904;2024-01-25T03:34:05;12.97;;;6.80;;
60054;SDS011;45930;53.514;55.904;2024-01-25T03:35:06;9.30;;;6.30;;
60054;SDS011;45930;53.514;55.904;2024-01-25T03:36:07;12.25;;;6.95;;
60054;SDS011;45930;53.514;55.904;2024-01-25T03:37:08;9.33;;;6.53;;
60054;SDS011;45930;53.514;55.904;2024-01-25T03:38:08;11.87;;;7.57;;
60054;SDS011;45930;53.514;55.904;2024-01-25T03:39:09;10.90;;;7.43;;
60054;SDS011;45930;53.514;55.904;2024-01-25T03:40:10;9.70;;;7.07;;
60054;SDS011;45930;53.514;55.904;2024-01-25T03:41:11;9.03;;;6.87;;
60054;SDS011;45930;53.514;55.904;2024-01-25T03:42:11;13.63;;;7.90;;
60054;SDS011;45930;53.514;55.904;2024-01-25T03:43:12;12.93;;;7.40;;
60054;SDS011;45930;53.514;55.904;2024-01-25T03:44:13;14.63;;;8.40;;
60054;SDS011;45930;53.514;55.904;2024-01-25T03:45:13;12.87;;;8.27;;
60054;SDS011;45930;53.514;55.904;2024-01-25T03:46:14;12.63;;;7.70;;
60054;SDS011;45930;53.514;55.904;2024-01-25T03:47:15;14.73;;;8.47;;
60054;SDS011;45930;53.514;55.904;2024-01-25T03:48:16;13.37;;;8.87;;
60054;SDS011;45930;53.514;55.904;2024-01-25T03:49:17;15.00;;;8.93;;
60054;SDS011;45930;53.514;55.904;2024-01-25T03:50:19;13.55;;;8.63;;
60054;SDS011;45930;53.514;55.904;2024-01-25T03:51:19;13.10;;;8.27;;
60054;SDS011;45930;53.514;55.904;2024-01-25T03:52:20;17.07;;;8.83;;
60054;SDS011;45930;53.514;55.904;2024-01-25T03:53:24;11.10;;;8.13;;
60054;SDS011;45930;53.514;55.904;2024-01-25T03:54:25;12.80;;;8.63;;
60054;SDS011;45930;53.514;55.904;2024-01-25T03:55:25;11.67;;;8.20;;
60054;SDS011;45930;53.514;55.904;2024-01-25T03:56:26;12.83;;;8.37;;
60054;SDS011;45930;53.514;55.904;2024-01-25T03:57:28;13.57;;;8.80;;
60054;SDS011;45930;53.514;55.904;2024-01-25T03:58:28;12.67;;;8.83;;
60054;SDS011;45930;53.514;55.904;2024-01-25T03:59:29;11.60;;;7.87;;
60054;SDS011;45930;53.514;55.904;2024-01-25T04:00:30;12.53;;;7.67;;
60054;SDS011;45930;53.514;55.904;2024-01-25T04:01:30;13.03;;;8.37;;
60054;SDS011;45930;53.514;55.904;2024-01-25T04:02:31;11.67;;;9.33;;
60054;SDS011;45930;53.514;55.904;2024-01-25T04:03:32;16.20;;;8.05;;
60054;SDS011;45930;53.514;55.904;2024-01-25T04:04:33;13.70;;;8.63;;
60054;SDS011;45930;53.514;55.904;2024-01-25T04:05:33;13.53;;;8.67;;
60054;SDS011;45930;53.514;55.904;2024-01-25T04:06:35;16.48;;;8.38;;
60054;SDS011;45930;53.514;55.904;2024-01-25T04:07:35;12.53;;;8.10;;
60054;SDS011;45930;53.514;55.904;2024-01-25T04:08:36;14.73;;;8.10;;
60054;SDS011;45930;53.514;55.904;2024-01-25T04:09:37;15.07;;;9.07;;
60054;SDS011;45930;53.514;55.904;2024-01-25T04:10:38;15.60;;;8.85;;
60054;SDS011;45930;53.514;55.904;2024-01-25T04:11:39;13.80;;;8.23;;
60054;SDS011;45930;53.514;55.904;2024-01-25T04:12:39;13.43;;;8.93;;
60054;SDS011;45930;53.514;55.904;2024-01-25T04:13:40;15.67;;;8.30;;
60054;SDS011;45930;53.514;55.904;2024-01-25T04:14:41;16.23;;;8.30;;
60054;SDS011;45930;53.514;55.904;2024-01-25T04:15:42;13.40;;;8.50;;
60054;SDS011;45930;53.514;55.904;2024-01-25T04:16:42;11.30;;;8.33;;
60054;SDS011;45930;53.514;55.904;2024-01-25T04:17:43;15.97;;;8.70;;
60054;SDS011;45930;53.514;55.904;2024-01-25T04:18:44;15.60;;;9.13;;
60054;SDS011;45930;53.514;55.904;2024-01-25T04:19:45;13.50;;;9.07;;
60054;SDS011;45930;53.514;55.904;2024-01-25T04:20:45;12.50;;;8.60;;
60054;SDS011;45930;53.514;55.904;2024-01-25T04:21:47;15.75;;;8.85;;
60054;SDS011;45930;53.514;55.904;2024-01-25T04:22:48;13.03;;;8.97;;
60054;SDS011;45930;53.514;55.904;2024-01-25T04:23:48;13.73;;;9.60;;
60054;SDS011;45930;53.514;55.904;2024-01-25T04:24:49;14.07;;;8.10;;
60054;SDS011;45930;53.514;55.904;2024-01-25T04:25:50;15.50;;;9.67;;
60054;SDS011;45930;53.514;55.904;2024-01-25T04:26:51;16.13;;;9.45;;
60054;SDS011;45930;53.514;55.904;2024-01-25T04:27:52;13.83;;;8.93;;
60054;SDS011;45930;53.514;55.904;2024-01-25T04:28:53;15.33;;;9.33;;
60054;SDS011;45930;53.514;55.904;2024-01-25T04:29:53;12.63;;;8.30;;
60054;SDS011;45930;53.514;55.904;2024-01-25T04:30:54;15.77;;;9.47;;
60054;SDS011;45930;53.514;55.904;2024-01-25T04:31:55;13.73;;;9.33;;
60054;SDS011;45930;53.514;55.904;2024-01-25T04:32:56;14.47;;;9.23;;
60054;SDS011;45930;53.514;55.904;2024-01-25T04:33:56;17.43;;;8.83;;
60054;SDS011;45930;53.514;55.904;2024-01-25T04:34:57;15.53;;;8.30;;
60054;SDS011;45930;53.514;55.904;2024-01-25T04:35:58;16.70;;;8.53;;
60054;SDS011;45930;53.514;55.904;2024-01-25T04:36:58;13.60;;;8.50;;
60054;SDS011;45930;53.514;55.904;2024-01-25T04:37:59;12.97;;;8.53;;
60054;SDS011;45930;53.514;55.904;2024-01-25T04:39:00;14.57;;;8.50;;
60054;SDS011;45930;53.514;55.904;2024-01-25T04:40:01;12.70;;;7.93;;
60054;SDS011;45930;53.514;55.904;2024-01-25T04:41:02;14.77;;;8.40;;
60054;SDS011;45930;53.514;55.904;2024-01-25T04:42:03;12.63;;;8.63;;
60054;SDS011;45930;53.514;55.904;2024-01-25T04:43:03;14.93;;;8.05;;
60054;SDS011;45930;53.514;55.904;2024-01-25T04:44:04;23.23;;;8.97;;
60054;SDS011;45930;53.514;55.904;2024-01-25T04:45:05;14.70;;;8.27;;
60054;SDS011;45930;53.514;55.904;2024-01-25T04:46:06;13.82;;;8.63;;
60054;SDS011;45930;53.514;55.904;2024-01-25T04:47:07;13.87;;;9.73;;
60054;SDS011;45930;53.514;55.904;2024-01-25T04:48:09;17.20;;;8.27;;
60054;SDS011;45930;53.514;55.904;2024-01-25T04:49:09;15.27;;;8.43;;
60054;SDS011;45930;53.514;55.904;2024-01-25T04:50:11;13.77;;;9.32;;
60054;SDS011;45930;53.514;55.904;2024-01-25T04:51:15;15.17;;;8.53;;
60054;SDS011;45930;53.514;55.904;2024-01-25T04:52:16;15.35;;;8.32;;
60054;SDS011;45930;53.514;55.904;2024-01-25T04:53:17;15.75;;;8.85;;
60054;SDS011;45930;53.514;55.904;2024-01-25T04:54:18;16.43;;;9.27;;
60054;SDS011;45930;53.514;55.904;2024-01-25T04:55:19;15.07;;;9.27;;
60054;SDS011;45930;53.514;55.904;2024-01-25T04:56:20;16.80;;;9.13;;
60054;SDS011;45930;53.514;55.904;2024-01-25T04:57:21;15.47;;;8.90;;
60054;SDS011;45930;53.514;55.904;2024-01-25T04:58:21;15.37;;;8.53;;
60054;SDS011;45930;53.514;55.904;2024-01-25T04:59:22;13.07;;;8.07;;
60054;SDS011;45930;53.514;55.904;2024-01-25T05:00:23;14.67;;;8.30;;
60054;SDS011;45930;53.514;55.904;2024-01-25T05:01:24;16.27;;;9.33;;
60054;SDS011;45930;53.514;55.904;2024-01-25T05:02:24;16.70;;;9.30;;
60054;SDS011;45930;53.514;55.904;2024-01-25T05:03:25;15.30;;;8.30;;
60054;SDS011;45930;53.514;55.904;2024-01-25T05:04:27;12.20;;;8.43;;
60054;SDS011;45930;53.514;55.904;2024-01-25T05:05:29;15.65;;;8.35;;
60054;SDS011;45930;53.514;55.904;2024-01-25T05:06:30;15.20;;;8.10;;
60054;SDS011;45930;53.514;55.904;2024-01-25T05:07:30;15.40;;;8.97;;
60054;SDS011;45930;53.514;55.904;2024-01-25T05:08:31;11.77;;;8.73;;
60054;SDS011;45930;53.514;55.904;2024-01-25T05:09:32;17.13;;;8.80;;
60054;SDS011;45930;53.514;55.904;2024-01-25T05:10:33;13.33;;;7.93;;
60054;SDS011;45930;53.514;55.904;2024-01-25T05:11:37;15.83;;;7.80;;
60054;SDS011;45930;53.514;55.904;2024-01-25T05:12:41;13.40;;;7.38;;
60054;SDS011;45930;53.514;55.904;2024-01-25T05:13:41;17.73;;;8.90;;
60054;SDS011;45930;53.514;55.904;2024-01-25T05:14:42;15.00;;;8.20;;
60054;SDS011;45930;53.514;55.904;2024-01-25T05:15:43;13.73;;;7.87;;
60054;SDS011;45930;53.514;55.904;2024-01-25T05:16:44;13.23;;;8.17;;
60054;SDS011;45930;53.514;55.904;2024-01-25T05:17:44;12.37;;;7.70;;
60054;SDS011;45930;53.514;55.904;2024-01-25T05:18:45;14.60;;;8.23;;
60054;SDS011;45930;53.514;55.904;2024-01-25T05:19:46;13.33;;;8.47;;
60054;SDS011;45930;53.514;55.904;2024-01-25T05:20:46;12.10;;;8.17;;
60054;SDS011;45930;53.514;55.904;2024-01-25T05:21:47;13.13;;;8.33;;
60054;SDS011;45930;53.514;55.904;2024-01-25T05:22:48;12.30;;;8.97;;
60054;SDS011;45930;53.514;55.904;2024-01-25T05:23:48;17.07;;;8.40;;
60054;SDS011;45930;53.514;55.904;2024-01-25T05:24:49;11.67;;;8.30;;
60054;SDS011;45930;53.514;55.904;2024-01-25T05:25:50;14.90;;;9.17;;
60054;SDS011;45930;53.514;55.904;2024-01-25T05:26:51;12.17;;;8.20;;
60054;SDS011;45930;53.514;55.904;2024-01-25T05:27:52;12.57;;;8.10;;
60054;SDS011;45930;53.514;55.904;2024-01-25T05:28:52;14.63;;;8.73;;
60054;SDS011;45930;53.514;55.904;2024-01-25T05:29:53;11.17;;;8.10;;
60054;SDS011;45930;53.514;55.904;2024-01-25T05:30:54;13.57;;;8.40;;
60054;SDS011;45930;53.514;55.904;2024-01-25T05:31:55;15.40;;;8.40;;
60054;SDS011;45930;53.514;55.904;2024-01-25T05:32:56;14.05;;;8.70;;
60054;SDS011;45930;53.514;55.904;2024-01-25T05:33:57;13.98;;;9.57;;
60054;SDS011;45930;53.514;55.904;2024-01-25T05:34:58;16.17;;;8.83;;
60054;SDS011;45930;53.514;55.904;2024-01-25T05:36:03;15.75;;;8.85;;
60054;SDS011;45930;53.514;55.904;2024-01-25T05:37:04;14.50;;;8.10;;
60054;SDS011;45930;53.514;55.904;2024-01-25T05:38:04;13.47;;;8.10;;
60054;SDS011;45930;53.514;55.904;2024-01-25T05:39:05;14.03;;;8.23;;
60054;SDS011;45930;53.514;55.904;2024-01-25T05:40:06;15.10;;;9.23;;
60054;SDS011;45930;53.514;55.904;2024-01-25T05:41:08;16.35;;;8.60;;
60054;SDS011;45930;53.514;55.904;2024-01-25T05:42:08;15.20;;;9.10;;
60054;SDS011;45930;53.514;55.904;2024-01-25T05:43:12;12.80;;;8.25;;
60054;SDS011;45930;53.514;55.904;2024-01-25T05:44:13;16.17;;;9.53;;
60054;SDS011;45930;53.514;55.904;2024-01-25T05:45:13;15.83;;;9.37;;
60054;SDS011;45930;53.514;55.904;2024-01-25T05:46:14;15.70;;;8.80;;
60054;SDS011;45930;53.514;55.904;2024-01-25T05:47:15;14.07;;;8.53;;
60054;SDS011;45930;53.514;55.904;2024-01-25T05:48:16;12.50;;;7.95;;
60054;SDS011;45930;53.514;55.904;2024-01-25T05:49:17;15.03;;;8.37;;
60054;SDS011;45930;53.514;55.904;2024-01-25T05:50:18;14.93;;;8.17;;
60054;SDS011;45930;53.514;55.904;2024-01-25T05:51:18;11.13;;;7.50;;
60054;SDS011;45930;53.514;55.904;2024-01-25T05:52:19;11.33;;;7.73;;
60054;SDS011;45930;53.514;55.904;2024-01-25T05:53:21;13.98;;;8.02;;
60054;SDS011;45930;53.514;55.904;2024-01-25T05:54:22;15.52;;;7.93;;
60054;SDS011;45930;53.514;55.904;2024-01-25T05:55:23;13.30;;;7.87;;
60054;SDS011;45930;53.514;55.904;2024-01-25T05:56:24;14.13;;;7.63;;